Time;durP1;ratioP1;P1;durP2;ratioP2;P2;SDS_P1;SDS_P2;PMS_P1;PMS_P2;Temp;Humidity;BMP_temperature;BMP_pressure;BME280_temperature;BME280_humidity;BME280_pressure;Samples;Min_cycle;Max_cycle;Signal;HPM_P1;HPM_P2
2022/01/07 00:02:01;;;;;;;28.25;10.52;;;2.50;99.90;;;;;;5090877;28;20131;-41
2022/01/07 00:04:26;;;;;;;32.67;11.05;;;2.40;99.90;;;;;;5089994;28;20842;-41
2022/01/07 00:06:52;;;;;;;27.10;9.90;;;2.50;99.90;;;;;;5089110;28;20048;-40
2022/01/07 00:09:18;;;;;;;20.05;8.70;;;2.50;99.90;;;;;;5090056;28;20098;-41
2022/01/07 00:11:44;;;;;;;23.73;9.75;;;2.40;99.90;;;;;;5090158;28;20043;-40
2022/01/07 00:14:11;;;;;;;26.95;8.80;;;2.50;99.90;;;;;;5090166;28;20479;-41
2022/01/07 00:16:37;;;;;;;24.40;8.63;;;2.50;99.90;;;;;;5090211;28;20036;-41
2022/01/07 00:19:03;;;;;;;25.33;8.25;;;2.50;99.90;;;;;;5089875;28;20047;-40
2022/01/07 00:21:29;;;;;;;20.13;8.43;;;1.90;99.90;;;;;;5090111;28;20351;-41
2022/01/07 00:23:55;;;;;;;19.17;7.40;;;2.50;99.90;;;;;;5091009;28;20395;-40
2022/01/07 00:26:21;;;;;;;20.85;7.90;;;2.30;99.90;;;;;;5091006;28;20560;-40
2022/01/07 00:28:46;;;;;;;19.77;9.88;;;2.30;99.90;;;;;;5091530;28;20055;-41
2022/01/07 00:31:12;;;;;;;30.98;9.02;;;2.50;99.90;;;;;;5091226;28;20438;-41
2022/01/07 00:33:38;;;;;;;22.98;9.75;;;2.50;99.90;;;;;;5091824;28;20394;-42
2022/01/07 00:36:04;;;;;;;24.52;8.30;;;2.50;99.90;;;;;;5091457;28;20402;-42
2022/01/07 00:38:30;;;;;;;30.50;9.05;;;2.50;99.90;;;;;;5088810;28;20036;-42
2022/01/07 00:40:56;;;;;;;20.10;7.35;;;2.50;99.90;;;;;;5090085;28;20044;-41
2022/01/07 00:43:22;;;;;;;19.92;8.15;;;2.50;99.90;;;;;;5090892;28;20031;-42
2022/01/07 00:45:48;;;;;;;24.48;8.80;;;2.90;99.90;;;;;;5091163;28;20092;-41
2022/01/07 00:48:14;;;;;;;27.55;8.13;;;2.50;99.90;;;;;;5091162;28;20040;-41
2022/01/07 00:50:41;;;;;;;19.80;7.25;;;2.50;99.90;;;;;;5090809;28;20036;-42
2022/01/07 00:53:06;;;;;;;18.77;7.38;;;2.50;99.90;;;;;;5090709;28;20501;-40
2022/01/07 00:55:33;;;;;;;16.70;7.00;;;2.40;99.90;;;;;;5090558;28;20054;-43
2022/01/07 00:57:59;;;;;;;20.67;6.72;;;2.20;99.90;;;;;;5091063;28;20189;-40
2022/01/07 01:00:26;;;;;;;21.00;6.60;;;2.50;99.90;;;;;;5090659;28;20122;-40
2022/01/07 01:02:54;;;;;;;23.63;7.18;;;2.50;99.90;;;;;;5090737;28;20044;-41
2022/01/07 01:05:21;;;;;;;26.00;8.77;;;2.50;99.90;;;;;;5090698;28;20048;-40
2022/01/07 01:07:47;;;;;;;17.63;7.28;;;2.40;99.90;;;;;;5090916;28;20036;-41
2022/01/07 01:10:14;;;;;;;19.17;6.20;;;2.30;99.90;;;;;;5090249;28;20042;-40
2022/01/07 01:12:42;;;;;;;24.10;8.20;;;2.50;99.90;;;;;;5090559;28;20054;-40
2022/01/07 01:15:10;;;;;;;19.52;6.75;;;2.20;99.90;;;;;;5090527;28;20122;-41
2022/01/07 01:17:36;;;;;;;24.10;8.73;;;2.20;99.90;;;;;;5090227;28;20489;-41
2022/01/07 01:20:05;;;;;;;18.95;7.25;;;2.20;99.90;;;;;;5090748;28;20158;-41
2022/01/07 01:22:31;;;;;;;20.50;7.05;;;2.20;99.90;;;;;;5090521;28;20055;-40
2022/01/07 01:24:57;;;;;;;25.65;7.93;;;2.10;99.90;;;;;;5090423;28;20389;-42
2022/01/07 01:27:23;;;;;;;22.23;8.82;;;2.10;99.90;;;;;;5090096;28;20040;-40
2022/01/07 01:29:48;;;;;;;20.25;8.65;;;2.00;99.90;;;;;;5090376;28;20036;-41
2022/01/07 01:32:16;;;;;;;22.90;9.68;;;2.00;99.90;;;;;;5090315;28;20048;-40
2022/01/07 01:34:42;;;;;;;20.38;8.88;;;1.60;99.90;;;;;;5090265;28;20062;-40
2022/01/07 01:37:08;;;;;;;25.75;9.70;;;2.00;99.90;;;;;;5089897;28;20687;-42
2022/01/07 01:39:34;;;;;;;25.33;9.82;;;2.00;99.90;;;;;;5088276;28;20150;-40
2022/01/07 01:42:00;;;;;;;18.60;9.05;;;1.90;99.90;;;;;;5089981;28;20042;-41
2022/01/07 01:44:25;;;;;;;28.13;10.35;;;1.90;99.90;;;;;;5089822;28;20089;-40
2022/01/07 01:46:51;;;;;;;30.55;11.80;;;1.90;99.90;;;;;;5090285;28;20048;-41
2022/01/07 01:49:17;;;;;;;32.17;11.88;;;1.90;99.90;;;;;;5089984;28;20036;-40
2022/01/07 01:51:43;;;;;;;22.77;9.32;;;1.90;99.90;;;;;;5089833;28;20048;-40
2022/01/07 01:54:09;;;;;;;28.55;11.40;;;1.80;99.90;;;;;;5089967;28;20059;-41
2022/01/07 01:56:35;;;;;;;31.13;10.52;;;2.70;99.90;;;;;;5089796;28;20378;-40
2022/01/07 01:59:00;;;;;;;25.15;10.50;;;1.80;99.90;;;;;;5090229;28;20044;-42
2022/01/07 02:01:26;;;;;;;24.80;12.00;;;1.80;99.90;;;;;;5090068;28;20043;-41
2022/01/07 02:03:52;;;;;;;32.22;12.73;;;2.30;99.90;;;;;;5089875;28;20048;-40
2022/01/07 02:06:18;;;;;;;32.25;12.13;;;1.80;99.90;;;;;;5089599;28;20044;-40
2022/01/07 02:08:44;;;;;;;30.98;11.57;;;1.80;99.90;;;;;;5089565;28;20043;-41
2022/01/07 02:11:10;;;;;;;29.30;10.43;;;1.80;99.90;;;;;;5089803;28;20044;-41
2022/01/07 02:13:36;;;;;;;33.40;12.30;;;1.80;99.90;;;;;;5088982;28;20047;-42
2022/01/07 02:16:01;;;;;;;29.90;12.05;;;1.80;99.90;;;;;;5089693;28;20047;-41
2022/01/07 02:18:27;;;;;;;30.13;12.57;;;1.80;99.90;;;;;;5089455;28;20051;-40
2022/01/07 02:20:53;;;;;;;29.08;12.95;;;1.80;99.90;;;;;;5089584;28;20052;-41
2022/01/07 02:23:19;;;;;;;33.25;12.48;;;1.80;99.90;;;;;;5089599;28;20130;-41
2022/01/07 02:25:46;;;;;;;33.78;12.50;;;1.80;99.90;;;;;;5089702;28;20052;-41
2022/01/07 02:28:12;;;;;;;38.00;14.65;;;1.80;99.90;;;;;;5089749;28;20119;-41
2022/01/07 02:30:38;;;;;;;37.95;14.73;;;1.80;99.90;;;;;;5089338;28;20044;-41
2022/01/07 02:33:04;;;;;;;32.60;13.35;;;1.80;99.90;;;;;;5089573;28;20040;-41
2022/01/07 02:35:32;;;;;;;29.27;12.32;;;1.80;99.90;;;;;;5088415;28;20186;-41
2022/01/07 02:37:59;;;;;;;29.95;14.75;;;1.80;99.90;;;;;;5087551;28;20056;-40
2022/01/07 02:40:25;;;;;;;34.33;14.73;;;1.70;99.90;;;;;;5089668;28;20119;-41
2022/01/07 02:42:51;;;;;;;35.50;15.35;;;1.90;99.90;;;;;;5089728;28;20048;-43
2022/01/07 02:45:17;;;;;;;29.50;13.13;;;1.60;99.90;;;;;;5071352;28;20123;-41
2022/01/07 02:48:06;;;;;;;34.53;17.10;;;1.60;99.90;;;;;;5089171;28;20123;-40
2022/01/07 02:50:33;;;;;;;43.08;16.30;;;1.70;99.90;;;;;;5088749;28;20486;-40
2022/01/07 02:53:00;;;;;;;39.80;16.75;;;1.70;99.90;;;;;;5089632;28;20039;-40
2022/01/07 02:55:26;;;;;;;33.90;14.15;;;1.70;99.90;;;;;;5089179;28;20052;-41
2022/01/07 02:57:52;;;;;;;41.22;17.73;;;1.80;99.90;;;;;;5088965;28;20106;-40
2022/01/07 03:00:20;;;;;;;34.38;17.25;;;1.70;99.90;;;;;;5087758;28;20051;-40
2022/01/07 03:02:47;;;;;;;34.28;15.95;;;1.70;99.90;;;;;;5088928;28;20051;-41
2022/01/07 03:05:13;;;;;;;32.08;15.75;;;1.50;99.90;;;;;;5089109;28;20070;-40
2022/01/07 03:07:39;;;;;;;31.83;17.48;;;1.70;99.90;;;;;;5089080;28;20036;-41
2022/01/07 03:10:06;;;;;;;38.92;18.40;;;1.70;99.90;;;;;;5089196;28;20076;-40
2022/01/07 03:12:32;;;;;;;40.25;18.85;;;1.70;99.90;;;;;;5088966;28;20081;-41
2022/01/07 03:14:58;;;;;;;42.08;18.15;;;1.70;99.90;;;;;;5089091;28;20036;-41
2022/01/07 03:17:24;;;;;;;37.85;19.13;;;1.70;99.90;;;;;;5089035;28;20039;-40
2022/01/07 03:19:50;;;;;;;35.30;16.90;;;1.60;99.90;;;;;;5088994;28;20148;-40
2022/01/07 03:22:15;;;;;;;44.53;20.50;;;1.70;99.90;;;;;;5089051;28;20051;-40
2022/01/07 03:24:41;;;;;;;40.95;20.40;;;1.70;99.90;;;;;;5088935;28;20055;-40
2022/01/07 03:27:07;;;;;;;35.78;18.50;;;1.70;99.90;;;;;;5091596;28;20036;-40
2022/01/07 03:29:34;;;;;;;40.65;20.98;;;1.70;99.90;;;;;;5092610;28;20046;-40
2022/01/07 03:32:00;;;;;;;41.33;20.95;;;1.70;99.90;;;;;;5092459;28;20113;-40
2022/01/07 03:34:25;;;;;;;41.55;19.15;;;1.70;99.90;;;;;;5092782;28;20565;-40
2022/01/07 03:36:51;;;;;;;31.65;15.57;;;1.70;99.90;;;;;;5073961;28;20150;-40
2022/01/07 03:39:17;;;;;;;45.88;22.50;;;1.70;99.90;;;;;;5090080;28;20044;-40
2022/01/07 03:41:42;;;;;;;37.83;19.67;;;1.70;99.90;;;;;;5092555;28;20039;-40
2022/01/07 03:44:08;;;;;;;36.72;21.98;;;1.70;99.90;;;;;;5092445;28;20049;-40
2022/01/07 03:46:34;;;;;;;38.83;18.70;;;1.70;99.90;;;;;;5092506;28;20048;-41
2022/01/07 03:48:59;;;;;;;35.58;18.50;;;1.70;99.90;;;;;;5092182;28;20101;-40
2022/01/07 03:51:25;;;;;;;36.90;18.95;;;1.70;99.90;;;;;;5092578;28;20119;-40
2022/01/07 03:53:51;;;;;;;35.75;19.45;;;1.60;99.90;;;;;;5092034;28;20052;-40
2022/01/07 03:56:17;;;;;;;37.78;19.42;;;1.70;99.90;;;;;;5092393;28;20040;-40
2022/01/07 03:58:44;;;;;;;32.28;19.15;;;1.80;99.90;;;;;;5091786;28;20083;-40
2022/01/07 04:01:10;;;;;;;34.83;18.88;;;1.80;99.90;;;;;;5091751;28;20036;-40
2022/01/07 04:03:35;;;;;;;31.98;17.90;;;1.80;99.90;;;;;;5092211;28;20048;-40
2022/01/07 04:06:01;;;;;;;39.80;20.38;;;1.80;99.90;;;;;;5091660;28;20090;-40
2022/01/07 04:08:27;;;;;;;41.22;21.63;;;1.80;99.90;;;;;;5091982;28;20339;-40
2022/01/07 04:10:52;;;;;;;45.38;20.45;;;1.80;99.90;;;;;;5091660;28;20050;-40
2022/01/07 04:13:18;;;;;;;36.28;17.75;;;1.80;99.90;;;;;;5091728;28;20420;-40
2022/01/07 04:15:44;;;;;;;39.72;21.52;;;1.80;99.90;;;;;;5091518;28;20040;-40
2022/01/07 04:18:09;;;;;;;35.20;19.63;;;1.80;99.90;;;;;;5091801;28;20052;-40
2022/01/07 04:20:36;;;;;;;36.20;18.55;;;1.80;99.90;;;;;;5091889;28;20040;-40
2022/01/07 04:23:03;;;;;;;32.60;16.17;;;1.80;99.90;;;;;;5091717;28;20067;-40
2022/01/07 04:25:29;;;;;;;38.55;20.92;;;1.60;99.90;;;;;;5091866;28;20056;-40
2022/01/07 04:28:00;;;;;;;42.97;19.13;;;1.90;99.90;;;;;;5091336;28;20187;-40
2022/01/07 04:30:32;;;;;;;35.20;18.33;;;1.90;99.90;;;;;;5091451;28;20047;-41
2022/01/07 04:32:58;;;;;;;27.38;14.75;;;1.90;99.90;;;;;;5091740;28;20390;-41
2022/01/07 04:35:25;;;;;;;34.08;18.35;;;1.90;99.90;;;;;;5091808;28;20048;-41
2022/01/07 04:37:51;;;;;;;43.00;22.25;;;1.90;99.90;;;;;;5088616;28;20576;-40
2022/01/07 04:40:17;;;;;;;40.88;20.25;;;1.90;99.90;;;;;;5091338;28;20083;-40
2022/01/07 04:42:44;;;;;;;39.15;21.35;;;1.90;99.90;;;;;;5091441;28;20466;-40
2022/01/07 04:45:11;;;;;;;41.40;19.48;;;3.80;99.90;;;;;;5091155;28;20044;-40
2022/01/07 04:47:38;;;;;;;43.50;21.85;;;2.30;99.90;;;;;;5091350;28;20067;-41
2022/01/07 04:50:08;;;;;;;41.08;21.48;;;1.90;99.90;;;;;;5091126;28;20048;-41
2022/01/07 04:52:33;;;;;;;40.97;21.77;;;1.90;99.90;;;;;;5091266;28;20405;-40
2022/01/07 04:54:59;;;;;;;36.28;21.05;;;1.90;99.90;;;;;;5090473;28;20052;-40
2022/01/07 04:57:25;;;;;;;34.53;19.55;;;1.90;99.90;;;;;;5090892;28;20044;-41
2022/01/07 04:59:51;;;;;;;38.58;19.77;;;2.00;99.90;;;;;;5090583;28;20040;-40
2022/01/07 05:02:19;;;;;;;40.60;22.25;;;1.90;99.90;;;;;;5091114;28;20048;-40
2022/01/07 05:04:45;;;;;;;36.55;18.52;;;1.90;99.90;;;;;;5091121;28;20082;-40
2022/01/07 05:07:11;;;;;;;32.40;18.33;;;1.90;99.90;;;;;;5090715;28;20052;-40
2022/01/07 05:09:37;;;;;;;36.70;19.50;;;1.70;99.90;;;;;;5090911;28;20044;-40
2022/01/07 05:12:03;;;;;;;32.17;17.48;;;1.90;99.90;;;;;;5090440;28;20075;-41
2022/01/07 05:14:29;;;;;;;38.90;20.60;;;2.00;99.90;;;;;;5089380;28;20055;-40
2022/01/07 05:16:56;;;;;;;33.42;20.13;;;2.00;99.90;;;;;;5090670;28;20047;-40
2022/01/07 05:19:21;;;;;;;32.13;17.05;;;2.00;99.90;;;;;;5090832;28;20040;-40
2022/01/07 05:21:47;;;;;;;31.58;18.05;;;2.00;99.90;;;;;;5090550;28;20444;-40
2022/01/07 05:24:13;;;;;;;30.45;18.65;;;2.00;99.90;;;;;;5090104;28;20040;-40
2022/01/07 05:26:38;;;;;;;34.65;19.40;;;2.00;99.90;;;;;;5090449;28;20044;-41
2022/01/07 05:29:05;;;;;;;32.08;16.77;;;1.70;99.90;;;;;;5090132;28;20078;-41
2022/01/07 05:31:31;;;;;;;36.88;19.80;;;2.00;99.90;;;;;;5090338;28;20279;-41
2022/01/07 05:33:57;;;;;;;34.20;18.33;;;2.00;99.90;;;;;;5088723;28;20074;-40
2022/01/07 05:36:23;;;;;;;31.92;17.02;;;2.00;99.90;;;;;;5090308;28;20067;-41
2022/01/07 05:38:50;;;;;;;38.03;21.33;;;2.00;99.90;;;;;;5087739;28;20147;-40
2022/01/07 05:41:16;;;;;;;32.00;20.08;;;2.00;99.90;;;;;;5090014;28;20105;-40
2022/01/07 05:43:42;;;;;;;32.28;18.90;;;2.00;99.90;;;;;;5090348;28;20032;-41
2022/01/07 05:46:10;;;;;;;34.53;19.42;;;2.00;99.90;;;;;;5090054;28;20486;-41
2022/01/07 05:48:36;;;;;;;36.22;18.48;;;2.00;99.90;;;;;;5089287;28;20040;-41
2022/01/07 05:51:04;;;;;;;31.52;16.80;;;2.00;99.90;;;;;;5089745;28;20062;-41
2022/01/07 05:53:30;;;;;;;32.38;18.85;;;2.00;99.90;;;;;;5089775;28;20071;-41
2022/01/07 05:55:55;;;;;;;36.40;19.88;;;2.00;99.90;;;;;;5089782;28;20478;-41
2022/01/07 05:58:21;;;;;;;32.17;18.88;;;2.10;99.90;;;;;;5089985;28;20075;-40
2022/01/07 06:00:47;;;;;;;30.45;18.38;;;2.10;99.90;;;;;;5089991;28;20050;-40
2022/01/07 06:03:13;;;;;;;29.23;18.05;;;2.10;99.90;;;;;;5089489;28;20490;-42
2022/01/07 06:05:39;;;;;;;29.50;18.75;;;2.10;99.90;;;;;;5089851;28;20028;-41
2022/01/07 06:08:05;;;;;;;26.30;17.02;;;2.10;99.90;;;;;;5089482;28;20420;-41
2022/01/07 06:10:31;;;;;;;32.53;17.30;;;2.10;99.90;;;;;;5089517;28;20051;-41
2022/01/07 06:12:57;;;;;;;33.60;17.55;;;2.10;99.90;;;;;;5088389;28;20044;-41
2022/01/07 06:15:22;;;;;;;30.20;16.88;;;2.10;99.90;;;;;;5088562;28;20051;-40
2022/01/07 06:17:48;;;;;;;31.70;19.05;;;2.10;99.90;;;;;;5089709;28;20040;-40
2022/01/07 06:20:15;;;;;;;27.58;15.70;;;2.10;99.90;;;;;;5089385;28;20089;-40
2022/01/07 06:22:41;;;;;;;21.15;11.52;;;2.10;99.90;;;;;;5090450;28;20505;-42
2022/01/07 06:25:07;;;;;;;29.10;16.52;;;2.10;99.90;;;;;;5089466;28;20079;-40
2022/01/07 06:27:33;;;;;;;24.90;16.73;;;2.10;99.90;;;;;;5089934;28;20076;-40
2022/01/07 06:29:59;;;;;;;34.17;19.30;;;2.10;99.90;;;;;;5089553;28;20076;-40
2022/01/07 06:32:25;;;;;;;22.42;13.75;;;2.10;99.90;;;;;;5089451;28;20187;-40
2022/01/07 06:34:52;;;;;;;23.98;14.02;;;2.10;99.90;;;;;;5089843;28;20054;-40
2022/01/07 06:37:17;;;;;;;31.05;15.15;;;2.20;99.90;;;;;;5087483;28;20027;-41
2022/01/07 06:39:43;;;;;;;29.63;17.58;;;2.10;99.90;;;;;;5088850;28;20512;-41
2022/01/07 06:42:09;;;;;;;28.27;16.38;;;2.00;99.90;;;;;;5089476;28;20640;-40
2022/01/07 06:44:36;;;;;;;27.88;15.02;;;2.20;99.90;;;;;;5089524;28;20091;-40
2022/01/07 06:47:03;;;;;;;32.38;18.10;;;2.20;99.90;;;;;;5089560;28;20089;-40
2022/01/07 06:49:29;;;;;;;28.10;17.70;;;2.20;99.90;;;;;;5089692;28;20398;-40
2022/01/07 06:51:55;;;;;;;27.95;17.98;;;2.20;99.90;;;;;;5089391;28;20032;-41
2022/01/07 06:54:21;;;;;;;28.52;17.70;;;2.90;99.90;;;;;;5089044;28;20087;-41
2022/01/07 06:56:46;;;;;;;22.58;13.60;;;2.20;99.90;;;;;;5089931;28;20095;-40
2022/01/07 06:59:13;;;;;;;24.15;15.40;;;2.20;99.90;;;;;;5089201;28;20119;-40
2022/01/07 07:01:40;;;;;;;28.80;15.82;;;2.30;99.90;;;;;;5093063;28;20054;-40
2022/01/07 07:04:05;;;;;;;35.45;17.38;;;2.30;99.90;;;;;;5092988;28;20051;-40
2022/01/07 07:06:31;;;;;;;28.02;17.73;;;2.30;99.90;;;;;;5093230;28;20094;-40
2022/01/07 07:08:57;;;;;;;29.48;16.05;;;2.30;99.90;;;;;;5092954;28;20085;-41
2022/01/07 07:11:22;;;;;;;20.92;12.75;;;2.00;99.90;;;;;;5092952;28;20082;-41
2022/01/07 07:13:48;;;;;;;23.50;13.70;;;2.30;99.90;;;;;;5093027;28;20104;-40
2022/01/07 07:16:15;;;;;;;33.22;18.33;;;2.90;99.90;;;;;;5092648;28;20408;-41
2022/01/07 07:18:41;;;;;;;28.73;18.05;;;2.30;99.90;;;;;;5093093;28;20059;-41
2022/01/07 07:21:06;;;;;;;25.95;15.55;;;2.30;99.90;;;;;;5092726;28;20447;-41
2022/01/07 07:23:32;;;;;;;30.23;18.17;;;2.30;99.90;;;;;;5092633;28;20044;-40
2022/01/07 07:25:58;;;;;;;31.92;18.50;;;2.40;99.90;;;;;;5092581;28;20127;-41
2022/01/07 07:28:24;;;;;;;28.95;18.20;;;2.40;99.90;;;;;;5092756;28;20036;-40
2022/01/07 07:30:51;;;;;;;24.92;14.82;;;2.40;99.90;;;;;;5092418;28;20079;-40
2022/01/07 07:38:45;;;;;;;29.23;19.05;;;2.50;99.90;;;;;;5090527;28;20305;-41
2022/01/07 07:41:11;;;;;;;28.70;18.80;;;2.50;99.90;;;;;;5092748;28;20063;-42
2022/01/07 07:43:38;;;;;;;33.20;19.23;;;2.50;99.90;;;;;;5092158;28;20036;-41
2022/01/07 07:46:04;;;;;;;35.25;20.25;;;2.50;99.90;;;;;;5092072;28;20565;-41
2022/01/07 07:48:31;;;;;;;30.67;17.08;;;2.50;99.90;;;;;;5092819;28;20043;-42
2022/01/07 07:50:56;;;;;;;34.85;20.23;;;2.50;99.90;;;;;;5092636;28;20066;-41
2022/01/07 07:53:22;;;;;;;30.75;18.13;;;2.50;99.90;;;;;;5092052;28;20473;-41
2022/01/07 07:55:53;;;;;;;29.73;19.02;;;2.60;99.90;;;;;;5092518;28;20439;-41
2022/01/07 07:58:22;;;;;;;43.65;24.42;;;2.60;99.90;;;;;;5092306;28;20428;-40
2022/01/07 08:00:49;;;;;;;41.03;23.40;;;2.60;99.90;;;;;;5092095;28;20081;-40
2022/01/07 08:03:15;;;;;;;39.38;23.25;;;2.60;99.90;;;;;;5092270;28;20075;-40
2022/01/07 08:05:41;;;;;;;31.67;15.68;;;2.70;99.90;;;;;;5092414;28;20079;-41
2022/01/07 08:08:06;;;;;;;35.38;21.95;;;2.70;99.90;;;;;;5092102;28;20043;-41
2022/01/07 08:10:33;;;;;;;36.28;20.40;;;2.90;99.90;;;;;;5092184;28;20048;-41
2022/01/07 08:18:15;;;;;;;42.50;24.70;;;2.40;99.90;;;;;;5091836;28;20052;-41
2022/01/07 08:20:41;;;;;;;42.83;25.27;;;2.70;99.90;;;;;;5091700;28;20050;-40
2022/01/07 08:23:06;;;;;;;38.38;25.30;;;2.80;99.90;;;;;;5091732;28;20492;-40
2022/01/07 08:25:32;;;;;;;49.00;26.63;;;2.80;99.90;;;;;;5091453;28;20050;-41
2022/01/07 08:28:02;;;;;;;43.17;24.13;;;2.80;99.90;;;;;;5091415;28;20040;-41
2022/01/07 08:30:35;;;;;;;44.97;26.20;;;2.80;99.90;;;;;;5090422;28;20044;-40
2022/01/07 08:35:45;;;;;;;48.17;27.52;;;3.30;99.90;;;;;;5091387;28;20382;-40
2022/01/07 08:38:12;;;;;;;40.72;26.85;;;2.90;99.90;;;;;;5082009;28;20048;-41
2022/01/07 08:40:38;;;;;;;44.95;27.45;;;2.90;99.90;;;;;;5071185;28;20366;-41
2022/01/07 08:43:03;;;;;;;55.08;30.67;;;3.00;99.90;;;;;;5070843;28;20490;-38
2022/01/07 08:45:29;;;;;;;48.83;27.33;;;3.00;99.90;;;;;;5068029;28;20048;-49
2022/01/07 08:47:55;;;;;;;52.97;28.98;;;3.00;99.90;;;;;;5065667;28;20048;-46
2022/01/07 08:50:21;;;;;;;51.92;30.98;;;3.10;99.90;;;;;;5068788;28;20430;-41
2022/01/07 08:52:47;;;;;;;51.25;31.50;;;3.10;99.90;;;;;;5070778;28;20032;-42
2022/01/07 08:55:13;;;;;;;51.92;29.58;;;3.10;99.90;;;;;;5068163;28;20047;-45
2022/01/07 08:57:39;;;;;;;50.30;30.55;;;3.10;99.90;;;;;;5073783;28;20848;-44
2022/01/07 09:00:05;;;;;;;55.83;32.03;;;3.20;99.90;;;;;;5069561;28;20095;-41
2022/01/07 09:02:31;;;;;;;50.72;29.67;;;3.20;99.90;;;;;;5069946;28;20638;-40
2022/01/07 09:04:57;;;;;;;52.50;31.92;;;3.20;99.90;;;;;;5072189;28;20119;-39
2022/01/07 09:07:22;;;;;;;58.03;31.15;;;3.30;99.90;;;;;;5073034;28;20709;-40
2022/01/07 09:09:48;;;;;;;51.47;28.35;;;3.30;99.90;;;;;;5068305;28;20036;-39
2022/01/07 09:12:14;;;;;;;63.42;34.15;;;3.40;99.90;;;;;;5072482;28;20074;-39
2022/01/07 09:14:40;;;;;;;54.58;32.70;;;4.20;99.90;;;;;;5074418;28;20044;-48
2022/01/07 09:17:06;;;;;;;54.38;32.25;;;3.50;99.90;;;;;;5073858;28;20033;-40
2022/01/07 09:19:32;;;;;;;51.58;28.92;;;3.60;99.90;;;;;;5071990;28;20032;-40
2022/01/07 09:21:58;;;;;;;53.33;30.65;;;3.50;99.90;;;;;;5070928;28;20042;-37
2022/01/07 09:24:29;;;;;;;52.60;31.50;;;3.60;99.90;;;;;;5070937;28;20033;-39
2022/01/07 09:26:56;;;;;;;60.28;32.78;;;3.60;99.90;;;;;;5068580;28;20552;-47
2022/01/07 09:29:26;;;;;;;57.45;29.83;;;3.60;99.90;;;;;;5070866;28;20082;-41
2022/01/07 09:31:52;;;;;;;53.65;33.67;;;3.70;99.90;;;;;;5072001;28;20131;-41
2022/01/07 09:34:18;;;;;;;57.20;32.38;;;4.40;99.90;;;;;;5071765;28;20529;-38
2022/01/07 09:36:44;;;;;;;63.28;32.50;;;3.80;99.90;;;;;;5070540;28;20060;-43
2022/01/07 09:39:10;;;;;;;58.05;34.42;;;3.90;99.90;;;;;;5070306;28;20096;-44
2022/01/07 09:41:36;;;;;;;54.78;31.38;;;3.70;99.90;;;;;;5081160;28;20055;-44
2022/01/07 09:44:02;;;;;;;64.15;34.60;;;4.00;99.90;;;;;;5069944;28;20056;-47
2022/01/07 09:46:28;;;;;;;52.60;28.33;;;3.90;99.90;;;;;;5071707;28;20020;-46
2022/01/07 09:48:54;;;;;;;51.58;32.22;;;4.10;99.90;;;;;;5071377;28;20478;-43
2022/01/07 09:51:22;;;;;;;57.03;32.35;;;4.10;99.90;;;;;;5072382;28;20036;-40
2022/01/07 09:53:49;;;;;;;53.65;31.67;;;4.10;99.90;;;;;;5069581;28;20143;-49
2022/01/07 09:56:15;;;;;;;49.10;30.85;;;4.10;99.90;;;;;;5073259;28;20533;-46
2022/01/07 09:58:40;;;;;;;51.35;27.85;;;4.20;99.90;;;;;;5069726;28;20126;-45
2022/01/07 10:01:09;;;;;;;55.55;29.13;;;5.20;99.90;;;;;;5070306;28;20034;-45
2022/01/07 10:03:38;;;;;;;53.95;30.00;;;4.20;99.90;;;;;;5070424;28;20519;-46
2022/01/07 10:06:16;;;;;;;53.30;31.08;;;5.10;99.90;;;;;;5068788;28;20054;-51
2022/01/07 10:08:42;;;;;;;62.63;32.00;;;4.70;99.90;;;;;;5071510;28;20051;-42
2022/01/07 10:11:20;;;;;;;65.72;31.00;;;4.20;99.90;;;;;;5068715;28;20052;-49
2022/01/07 10:14:10;;;;;;;60.38;32.75;;;4.00;99.90;;;;;;5068319;28;20123;-42
2022/01/07 10:16:47;;;;;;;55.88;31.27;;;4.90;99.90;;;;;;5068431;28;20039;-42
2022/01/07 10:19:38;;;;;;;63.42;33.42;;;4.10;99.90;;;;;;5072378;28;20044;-38
2022/01/07 10:22:10;;;;;;;60.17;33.22;;;4.10;99.90;;;;;;5069270;28;20409;-41
2022/01/07 10:25:18;;;;;;;68.40;32.33;;;4.20;99.90;;;;;;5069738;28;20074;-47
2022/01/07 10:27:44;;;;;;;42.65;23.45;;;4.00;99.90;;;;;;4998752;28;20384;-44
2022/01/07 10:30:25;;;;;;;48.28;26.92;;;4.20;99.90;;;;;;5059567;28;20126;-40
2022/01/07 10:32:53;;;;;;;45.85;23.50;;;4.20;99.90;;;;;;5071899;28;20040;-38
2022/01/07 10:35:20;;;;;;;35.60;19.70;;;4.20;99.90;;;;;;5070292;28;20406;-41
2022/01/07 10:37:58;;;;;;;41.65;22.15;;;4.20;99.90;;;;;;5074460;28;20405;-47
2022/01/07 10:40:41;;;;;;;28.15;16.02;;;4.30;99.90;;;;;;5074835;28;20047;-43
2022/01/07 10:43:22;;;;;;;29.15;18.30;;;4.50;99.90;;;;;;5072951;28;20044;-39
2022/01/07 10:45:56;;;;;;;29.58;17.70;;;4.70;99.90;;;;;;5072797;28;20057;-40
2022/01/07 10:48:25;;;;;;;30.52;16.20;;;4.70;99.90;;;;;;5075889;28;20499;-39
2022/01/07 10:50:52;;;;;;;29.88;16.55;;;4.60;99.90;;;;;;5074217;28;20509;-44
2022/01/07 10:53:26;;;;;;;23.90;15.10;;;4.50;99.90;;;;;;5073847;28;20032;-35
2022/01/07 10:56:06;;;;;;;22.88;14.63;;;4.40;99.90;;;;;;5073100;28;20375;-40
2022/01/07 10:58:59;;;;;;;30.58;15.45;;;4.10;99.90;;;;;;5072933;28;20428;-43
2022/01/07 11:01:27;;;;;;;30.65;16.20;;;4.10;99.90;;;;;;5072246;28;20129;-42
2022/01/07 11:03:58;;;;;;;30.85;17.77;;;4.00;99.90;;;;;;5074423;28;20044;-39
2022/01/07 11:06:25;;;;;;;32.57;16.60;;;3.90;99.90;;;;;;5073160;28;20032;-38
2022/01/07 11:08:53;;;;;;;31.52;17.67;;;3.80;99.90;;;;;;5076381;28;20037;-41
2022/01/07 11:11:20;;;;;;;35.67;17.55;;;3.80;99.90;;;;;;5072705;28;20040;-43
2022/01/07 11:13:46;;;;;;;32.10;18.33;;;3.90;99.90;;;;;;5072718;28;20056;-37
2022/01/07 11:16:13;;;;;;;34.05;19.70;;;4.20;99.90;;;;;;5076221;28;20043;-47
2022/01/07 11:18:44;;;;;;;35.00;17.33;;;5.00;99.90;;;;;;5073509;28;20079;-41
2022/01/07 11:21:11;;;;;;;36.08;18.45;;;4.10;99.90;;;;;;5074592;28;20100;-40
2022/01/07 11:23:38;;;;;;;30.98;18.75;;;4.10;99.90;;;;;;5073246;28;20036;-36
2022/01/07 11:26:06;;;;;;;28.45;15.70;;;4.10;99.90;;;;;;5077056;28;20044;-38
2022/01/07 11:28:33;;;;;;;37.33;15.23;;;3.80;99.90;;;;;;5074598;28;20050;-38
2022/01/07 11:31:05;;;;;;;37.40;16.73;;;4.10;99.90;;;;;;5071986;28;20047;-35
2022/01/07 11:33:31;;;;;;;;;;;4.10;99.90;;;;;;5074338;28;20116;-41
2022/01/07 11:35:57;;;;;;;33.17;14.57;;;4.20;99.90;;;;;;5076789;28;19967;-46
2022/01/07 11:38:33;;;;;;;26.98;13.93;;;4.20;99.90;;;;;;5075896;28;20140;-39
2022/01/07 11:40:59;;;;;;;29.88;15.52;;;4.40;99.90;;;;;;5072199;28;20071;-38
2022/01/07 11:43:31;;;;;;;27.90;14.73;;;4.70;99.90;;;;;;5076848;28;20079;-42
2022/01/07 11:45:59;;;;;;;24.02;12.95;;;4.40;99.90;;;;;;5074506;28;20108;-48
2022/01/07 11:48:27;;;;;;;29.00;15.40;;;4.50;99.90;;;;;;5073574;28;20040;-43
2022/01/07 11:50:56;;;;;;;36.03;18.25;;;4.60;99.90;;;;;;5075098;28;20093;-48
2022/01/07 11:53:22;;;;;;;28.13;17.80;;;4.50;99.90;;;;;;5071877;28;20116;-44
2022/01/07 11:55:49;;;;;;;34.63;18.15;;;4.50;99.90;;;;;;5074174;28;20095;-45
2022/01/07 11:58:16;;;;;;;40.38;21.15;;;4.50;99.90;;;;;;5074103;28;20032;-44
2022/01/07 12:01:03;;;;;;;38.92;19.85;;;4.40;99.90;;;;;;5073091;28;20784;-41
2022/01/07 12:03:34;;;;;;;40.10;19.85;;;4.30;99.90;;;;;;5075324;28;20028;-41
2022/01/07 12:06:28;;;;;;;39.95;21.90;;;4.20;99.90;;;;;;5073867;28;20182;-41
2022/01/07 12:09:05;;;;;;;34.35;20.92;;;4.20;99.90;;;;;;5072831;28;20032;-40
2022/01/07 12:11:36;;;;;;;43.97;23.98;;;4.00;99.90;;;;;;5072873;28;20059;-38
2022/01/07 12:14:06;;;;;;;38.15;21.77;;;4.20;99.90;;;;;;5073787;28;20099;-44
2022/01/07 12:16:33;;;;;;;36.75;22.65;;;4.20;99.90;;;;;;5071437;28;20147;-43
2022/01/07 12:19:21;;;;;;;33.65;21.45;;;4.30;99.90;;;;;;5073517;28;20044;-44
2022/01/07 12:22:09;;;;;;;42.17;23.08;;;4.30;99.90;;;;;;5076065;28;20036;-41
2022/01/07 12:24:34;;;;;;;41.90;24.50;;;4.20;99.90;;;;;;5073306;28;20417;-41
2022/01/07 12:27:13;;;;;;;38.13;21.63;;;4.80;99.90;;;;;;5072070;28;20085;-40
2022/01/07 12:29:42;;;;;;;37.33;19.42;;;4.30;99.90;;;;;;5071745;28;20039;-40
2022/01/07 12:32:11;;;;;;;36.72;21.92;;;4.20;99.90;;;;;;5072194;28;20048;-43
2022/01/07 12:34:43;;;;;;;35.28;18.88;;;4.60;99.90;;;;;;5073877;28;20043;-40
2022/01/07 12:37:10;;;;;;;26.70;15.60;;;4.40;99.90;;;;;;5071552;28;20041;-42
2022/01/07 12:39:45;;;;;;;28.67;15.23;;;4.70;99.90;;;;;;5072761;28;20042;-42
2022/01/07 12:42:11;;;;;;;22.50;12.63;;;4.60;99.90;;;;;;5072836;28;20039;-41
2022/01/07 12:44:38;;;;;;;29.40;12.93;;;4.60;99.90;;;;;;5070547;28;20033;-41
2022/01/07 12:47:05;;;;;;;21.33;12.35;;;4.60;99.90;;;;;;5073382;28;20033;-41
2022/01/07 12:49:53;;;;;;;20.17;9.13;;;4.70;99.90;;;;;;5073860;28;20094;-40
2022/01/07 12:52:30;;;;;;;15.75;8.73;;;4.80;99.90;;;;;;5072902;28;20049;-46
2022/01/07 12:55:02;;;;;;;15.30;6.53;;;4.80;99.90;;;;;;5071576;28;20048;-41